createdAt,value
2023-02-16T00:00:27.676Z,43.87
2023-02-16T00:02:54.781Z,43.77
2023-02-16T00:05:34.672Z,43.33
2023-02-16T00:08:02.409Z,42.37
2023-02-16T00:10:39.911Z,42.27
2023-02-16T00:13:44.412Z,41.70
2023-02-16T00:16:24.664Z,41.43
2023-02-16T00:18:53.096Z,41.67
2023-02-16T00:21:20.654Z,43.07
2023-02-16T00:23:48.535Z,43.17
2023-02-16T00:26:27.888Z,42.30
2023-02-16T00:29:00.844Z,42.43
2023-02-16T00:31:33.007Z,42.50
2023-02-16T00:34:20.387Z,42.30
2023-02-16T00:36:47.338Z,44.23
2023-02-16T00:39:14.353Z,42.97
2023-02-16T00:41:50.675Z,43.77
2023-02-16T00:44:18.540Z,43.67
2023-02-16T00:46:46.518Z,43.47
2023-02-16T00:49:16.078Z,43.87
2023-02-16T00:51:43.712Z,42.93
2023-02-16T00:54:10.947Z,42.27
2023-02-16T00:56:39.060Z,42.97
2023-02-16T00:59:11.889Z,40.97
2023-02-16T01:01:39.011Z,41.63
2023-02-16T01:04:10.733Z,42.67
2023-02-16T01:06:56.982Z,41.20
2023-02-16T01:09:42.501Z,41.63
2023-02-16T01:12:18.180Z,41.80
2023-02-16T01:14:51.681Z,42.67
2023-02-16T01:17:18.712Z,42.63
2023-02-16T01:19:45.736Z,42.53
2023-02-16T01:22:13.192Z,43.07
2023-02-16T01:24:40.240Z,41.97
2023-02-16T01:27:13.321Z,42.50
2023-02-16T01:29:40.326Z,42.53
2023-02-16T01:32:07.499Z,42.07
2023-02-16T01:34:34.547Z,40.53
2023-02-16T01:37:01.579Z,42.27
2023-02-16T01:39:28.629Z,42.80
2023-02-16T01:42:32.383Z,40.63
2023-02-16T01:45:05.021Z,41.80
2023-02-16T01:47:54.675Z,41.20
2023-02-16T01:50:26.098Z,40.13
2023-02-16T01:53:02.161Z,42.43
2023-02-16T01:55:43.815Z,41.03
2023-02-16T01:58:46.310Z,40.13
2023-02-16T02:01:38.519Z,41.17
2023-02-16T02:04:53.288Z,39.93
2023-02-16T02:07:29.956Z,40.87
2023-02-16T02:10:41.843Z,39.43
2023-02-16T02:13:16.840Z,38.93
2023-02-16T02:15:44.233Z,39.00
2023-02-16T02:18:11.284Z,41.27
2023-02-16T02:21:55.290Z,39.83
2023-02-16T02:25:05.236Z,39.57
2023-02-16T02:27:39.957Z,39.83
2023-02-16T02:30:27.993Z,39.70
2023-02-16T02:33:32.404Z,38.53
2023-02-16T02:36:15.369Z,39.40
2023-02-16T02:38:56.758Z,39.17
2023-02-16T02:42:04.226Z,39.20
2023-02-16T02:44:41.003Z,38.30
2023-02-16T02:47:08.419Z,37.23
2023-02-16T02:49:35.385Z,39.07
2023-02-16T02:52:02.499Z,39.37
2023-02-16T02:54:55.510Z,40.73
2023-02-16T02:57:54.169Z,38.73
2023-02-16T03:00:47.362Z,38.37
2023-02-16T03:03:33.336Z,38.40
2023-02-16T03:06:17.341Z,38.57
2023-02-16T03:08:48.767Z,38.20
2023-02-16T03:11:43.267Z,37.67
2023-02-16T03:14:29.803Z,37.93
2023-02-16T03:17:22.530Z,38.80
2023-02-16T03:20:10.387Z,38.47
2023-02-16T03:22:57.734Z,37.17
2023-02-16T03:25:48.786Z,37.70
2023-02-16T03:28:37.066Z,37.67
2023-02-16T03:31:07.554Z,37.50
2023-02-16T03:33:35.600Z,38.57
2023-02-16T03:36:03.929Z,37.87
2023-02-16T03:38:31.286Z,37.47
2023-02-16T03:40:58.205Z,37.67
2023-02-16T03:43:27.982Z,39.40
2023-02-16T03:45:55.372Z,38.30
2023-02-16T03:48:22.487Z,38.23
2023-02-16T03:50:49.549Z,37.70
2023-02-16T03:53:18.295Z,36.73
2023-02-16T03:55:48.046Z,36.60
2023-02-16T03:58:21.339Z,38.33
2023-02-16T04:00:48.943Z,35.63
2023-02-16T04:03:16.567Z,37.10
2023-02-16T04:05:44.255Z,35.83
2023-02-16T04:08:11.988Z,36.33
2023-02-16T04:10:40.037Z,35.90
2023-02-16T04:13:07.334Z,36.63
2023-02-16T04:15:34.483Z,36.63
2023-02-16T04:18:02.079Z,36.70
2023-02-16T04:20:32.547Z,36.37
2023-02-16T04:23:00.477Z,35.63
2023-02-16T04:25:28.176Z,36.23
2023-02-16T04:27:55.861Z,36.07
2023-02-16T04:30:27.974Z,36.80
2023-02-16T04:32:55.619Z,36.40
2023-02-16T04:35:23.162Z,36.40
2023-02-16T04:37:50.340Z,37.03
2023-02-16T04:40:18.599Z,37.47
2023-02-16T04:42:46.020Z,35.70
2023-02-16T04:45:13.642Z,37.10
2023-02-16T04:47:40.946Z,36.73
2023-02-16T04:50:09.343Z,37.00
2023-02-16T04:52:37.944Z,36.87
2023-02-16T04:55:07.422Z,34.97
2023-02-16T04:57:34.452Z,36.23
2023-02-16T05:00:01.429Z,35.90
2023-02-16T05:02:28.600Z,33.93
2023-02-16T05:05:02.559Z,34.73
2023-02-16T05:07:29.622Z,35.57
2023-02-16T05:09:56.615Z,34.80
2023-02-16T05:12:42.515Z,33.93
2023-02-16T05:15:09.548Z,34.60
2023-02-16T05:17:36.585Z,34.47
2023-02-16T05:20:04.117Z,35.13
2023-02-16T05:22:34.558Z,33.90
2023-02-16T05:25:03.322Z,34.83
2023-02-16T05:27:31.360Z,34.40
2023-02-16T05:29:58.968Z,34.47
2023-02-16T05:32:26.270Z,34.37
2023-02-16T05:34:53.302Z,34.13
2023-02-16T05:37:20.384Z,35.50
2023-02-16T05:39:47.491Z,34.30
2023-02-16T05:42:14.628Z,35.70
2023-02-16T05:44:41.696Z,34.53
2023-02-16T05:47:08.727Z,36.03
2023-02-16T05:49:37.034Z,34.63
2023-02-16T05:52:04.113Z,34.37
2023-02-16T05:54:31.158Z,35.53
2023-02-16T05:56:58.144Z,33.90
2023-02-16T05:59:25.138Z,35.27
2023-02-16T06:01:52.651Z,35.67
2023-02-16T06:04:21.650Z,34.07
2023-02-16T06:06:49.073Z,34.50
2023-02-16T06:09:17.552Z,34.00
2023-02-16T06:11:44.803Z,34.83
2023-02-16T06:14:19.008Z,34.00
2023-02-16T06:16:49.347Z,35.07
2023-02-16T06:19:18.838Z,33.73
2023-02-16T06:21:46.415Z,34.90
2023-02-16T06:24:15.157Z,34.07
2023-02-16T06:26:42.428Z,34.40
2023-02-16T06:29:10.466Z,33.90
2023-02-16T06:31:37.761Z,34.07
2023-02-16T06:34:05.468Z,33.90
2023-02-16T06:36:33.163Z,33.90
2023-02-16T06:39:00.492Z,34.47
2023-02-16T06:41:40.125Z,33.93
2023-02-16T06:44:13.635Z,35.23
2023-02-16T06:46:42.329Z,36.13
2023-02-16T06:49:20.605Z,34.80
2023-02-16T06:51:49.519Z,33.17
2023-02-16T06:54:17.842Z,35.53
2023-02-16T06:56:44.820Z,34.10
2023-02-16T06:59:12.652Z,34.40
2023-02-16T07:01:39.774Z,33.77
2023-02-16T07:04:06.888Z,34.50
2023-02-16T07:06:34.066Z,32.93
2023-02-16T07:09:01.171Z,33.03
2023-02-16T07:11:28.344Z,34.67
2023-02-16T07:13:55.527Z,34.30
2023-02-16T07:16:22.835Z,34.23
2023-02-16T07:18:49.892Z,35.37
2023-02-16T07:21:17.223Z,35.07
2023-02-16T07:23:44.377Z,33.50
2023-02-16T07:26:11.748Z,34.47
2023-02-16T07:28:38.755Z,33.97
2023-02-16T07:31:15.319Z,35.23
2023-02-16T07:33:43.381Z,35.30
2023-02-16T07:36:12.948Z,35.47
2023-02-16T07:38:43.411Z,35.70
2023-02-16T07:41:11.824Z,36.27
2023-02-16T07:43:39.448Z,35.73
2023-02-16T07:46:06.535Z,38.03
2023-02-16T07:48:33.660Z,36.77
2023-02-16T07:51:01.719Z,35.97
2023-02-16T07:53:28.709Z,37.37
2023-02-16T07:55:56.688Z,38.80
2023-02-16T07:58:29.987Z,38.87
2023-02-16T08:01:09.647Z,37.67
2023-02-16T08:03:37.138Z,37.23
2023-02-16T08:06:05.710Z,38.37
2023-02-16T08:08:33.032Z,38.47
2023-02-16T08:11:00.704Z,38.50
2023-02-16T08:13:27.779Z,36.43
2023-02-16T08:15:54.781Z,37.83
2023-02-16T08:18:21.736Z,39.37
2023-02-16T08:21:03.290Z,37.50
2023-02-16T08:23:31.603Z,37.50
2023-02-16T08:25:59.215Z,37.13
2023-02-16T08:28:28.563Z,38.17
2023-02-16T08:30:55.915Z,40.03
2023-02-16T08:33:23.025Z,37.13
2023-02-16T08:35:50.351Z,36.80
2023-02-16T08:38:17.398Z,37.73
2023-02-16T08:40:51.676Z,37.63
2023-02-16T08:43:18.664Z,38.50
2023-02-16T08:45:49.099Z,38.13
2023-02-16T08:48:16.762Z,37.40
2023-02-16T08:50:53.509Z,36.23
2023-02-16T08:53:23.316Z,36.77
2023-02-16T08:55:58.140Z,35.70
2023-02-16T08:58:25.642Z,36.33
2023-02-16T09:00:53.135Z,36.67
2023-02-16T09:03:20.288Z,37.70
2023-02-16T09:05:49.795Z,37.27
2023-02-16T09:08:17.323Z,37.43
2023-02-16T09:10:44.342Z,38.53
2023-02-16T09:13:14.940Z,37.17
2023-02-16T09:15:47.431Z,38.33
2023-02-16T09:18:14.902Z,38.77
2023-02-16T09:20:46.763Z,36.87
2023-02-16T09:23:14.102Z,38.23
2023-02-16T09:25:44.085Z,38.37
2023-02-16T09:28:13.850Z,37.20
2023-02-16T09:30:40.929Z,36.63
2023-02-16T09:33:08.017Z,38.17
2023-02-16T09:35:34.984Z,40.10
2023-02-16T09:38:02.989Z,37.67
2023-02-16T09:40:30.884Z,37.53
2023-02-16T09:43:21.020Z,37.70
2023-02-16T09:45:51.356Z,37.03
2023-02-16T09:48:38.649Z,34.77
2023-02-16T09:51:09.109Z,34.50
2023-02-16T09:53:42.945Z,34.80
2023-02-16T09:56:56.540Z,35.57
2023-02-16T09:59:44.058Z,34.30
2023-02-16T10:02:42.099Z,34.07
2023-02-16T10:05:20.324Z,32.87
2023-02-16T10:08:09.474Z,32.77
2023-02-16T10:10:48.236Z,33.53
2023-02-16T10:13:44.012Z,33.77
2023-02-16T10:16:28.396Z,34.63
2023-02-16T10:18:56.629Z,35.67
2023-02-16T10:21:28.132Z,33.70
2023-02-16T10:24:06.157Z,34.57
2023-02-16T10:27:16.689Z,35.50
2023-02-16T10:29:43.758Z,33.13
2023-02-16T10:32:23.300Z,32.87
2023-02-16T10:35:10.911Z,33.17
2023-02-16T10:38:35.774Z,31.97
2023-02-16T10:41:33.537Z,30.27
2023-02-16T10:44:18.974Z,32.73
2023-02-16T10:46:54.205Z,33.13
2023-02-16T10:49:21.753Z,32.87
2023-02-16T10:51:52.239Z,32.03
2023-02-16T10:54:27.274Z,33.50
2023-02-16T10:57:04.151Z,32.83
2023-02-16T10:59:45.020Z,32.03
2023-02-16T11:02:39.015Z,30.50
2023-02-16T11:05:42.292Z,30.73
2023-02-16T11:08:12.865Z,33.70
2023-02-16T11:10:51.863Z,33.70
2023-02-16T11:13:35.305Z,32.27
2023-02-16T11:16:11.984Z,31.00
2023-02-16T11:18:43.088Z,31.57
2023-02-16T11:21:12.254Z,31.20
2023-02-16T11:23:42.248Z,34.03
2023-02-16T11:26:12.190Z,30.57
2023-02-16T11:28:43.228Z,30.00
2023-02-16T11:31:14.510Z,28.77
2023-02-16T11:33:43.747Z,29.43
2023-02-16T11:36:29.590Z,28.73
2023-02-16T11:39:14.247Z,28.33
2023-02-16T11:41:56.215Z,28.40
2023-02-16T11:44:41.547Z,28.90
2023-02-16T11:47:40.474Z,29.30
2023-02-16T11:50:32.145Z,27.87
2023-02-16T11:53:16.973Z,29.40
2023-02-16T11:55:51.153Z,28.90
2023-02-16T11:58:29.257Z,29.70
2023-02-16T12:01:28.292Z,31.07
2023-02-16T12:04:51.440Z,30.53
2023-02-16T12:07:47.076Z,29.40
2023-02-16T12:10:33.922Z,30.23
2023-02-16T12:13:26.838Z,28.63
2023-02-16T12:16:06.784Z,26.93
2023-02-16T12:18:51.584Z,26.80
2023-02-16T12:21:45.508Z,26.43
2023-02-16T12:24:44.251Z,25.90
2023-02-16T12:27:24.791Z,25.03
2023-02-16T12:30:02.104Z,25.47
2023-02-16T12:32:47.921Z,24.20
2023-02-16T12:35:51.477Z,22.40
2023-02-16T12:38:34.804Z,24.93
2023-02-16T12:41:21.972Z,25.27
2023-02-16T12:43:59.018Z,24.70
2023-02-16T12:46:42.662Z,25.13
2023-02-16T12:49:21.449Z,24.57
2023-02-16T12:52:00.939Z,24.87
2023-02-16T12:54:52.433Z,22.70
2023-02-16T12:57:25.114Z,24.27
2023-02-16T13:00:02.111Z,23.97
2023-02-16T13:02:46.236Z,22.67
2023-02-16T13:05:24.127Z,23.20
2023-02-16T13:08:06.504Z,22.37
2023-02-16T13:10:57.978Z,21.20
2023-02-16T13:13:27.909Z,22.73
2023-02-16T13:16:30.483Z,22.20
2023-02-16T13:18:58.748Z,22.23
2023-02-16T13:22:08.478Z,23.57
2023-02-16T13:25:21.051Z,21.60
2023-02-16T13:28:16.771Z,22.97
2023-02-16T13:31:24.190Z,22.03
2023-02-16T13:34:34.372Z,21.83
2023-02-16T13:37:23.548Z,22.53
2023-02-16T13:40:51.104Z,22.70
2023-02-16T13:43:36.578Z,22.07
2023-02-16T13:46:12.248Z,23.00
2023-02-16T13:48:48.324Z,22.57
2023-02-16T13:51:22.009Z,23.60
2023-02-16T13:54:04.011Z,22.37
2023-02-16T13:56:30.998Z,22.40
2023-02-16T13:59:18.636Z,22.47
2023-02-16T14:01:51.140Z,22.90
2023-02-16T14:04:27.087Z,22.33
2023-02-16T14:07:07.341Z,22.47
2023-02-16T14:09:37.427Z,23.20
2023-02-16T14:12:11.843Z,21.20
2023-02-16T14:14:53.515Z,22.17
2023-02-16T14:17:21.660Z,21.63
2023-02-16T14:20:05.710Z,21.63
2023-02-16T14:22:57.494Z,19.33
2023-02-16T14:25:32.619Z,18.80
2023-02-16T14:28:21.514Z,18.77
2023-02-16T14:31:12.050Z,17.57
2023-02-16T14:34:04.659Z,19.33
2023-02-16T14:36:32.237Z,17.57
2023-02-16T14:39:00.843Z,18.43
2023-02-16T14:41:34.950Z,17.87
2023-02-16T14:44:04.811Z,17.17
2023-02-16T14:46:58.866Z,18.30
2023-02-16T14:50:05.373Z,18.10
2023-02-16T14:52:47.235Z,18.47
2023-02-16T14:55:29.356Z,17.67
2023-02-16T14:58:03.244Z,17.93
2023-02-16T15:01:08.694Z,19.27
2023-02-16T15:03:41.707Z,19.67
2023-02-16T15:06:34.750Z,20.53
2023-02-16T15:09:31.582Z,21.10
2023-02-16T15:12:22.197Z,20.03
2023-02-16T15:14:54.822Z,20.80
2023-02-16T15:17:45.373Z,21.07
2023-02-16T15:20:34.328Z,19.83
2023-02-16T15:23:07.442Z,20.87
2023-02-16T15:25:42.124Z,21.33
2023-02-16T15:28:12.112Z,20.17
2023-02-16T15:30:56.525Z,20.90
2023-02-16T15:33:23.501Z,19.00
2023-02-16T15:35:59.268Z,18.03
2023-02-16T15:38:33.525Z,19.97
2023-02-16T15:41:08.150Z,18.87
2023-02-16T15:43:50.320Z,19.23
2023-02-16T15:46:40.467Z,18.30
2023-02-16T15:49:34.916Z,18.40
2023-02-16T15:52:02.492Z,17.17
2023-02-16T15:54:32.477Z,18.47
2023-02-16T15:57:06.637Z,18.10
2023-02-16T15:59:46.808Z,15.53
2023-02-16T16:02:22.910Z,16.97
2023-02-16T16:05:00.213Z,18.07
2023-02-16T16:07:35.827Z,15.53
2023-02-16T16:10:15.539Z,15.20
2023-02-16T16:12:43.385Z,16.20
2023-02-16T16:15:18.662Z,14.83
2023-02-16T16:17:45.688Z,13.97
2023-02-16T16:20:39.566Z,15.57
2023-02-16T16:23:14.148Z,14.40
2023-02-16T16:25:47.864Z,14.43
2023-02-16T16:28:36.229Z,14.30
2023-02-16T16:31:33.180Z,17.90
2023-02-16T16:34:08.806Z,18.03
2023-02-16T16:36:55.337Z,17.47
2023-02-16T16:39:27.389Z,18.27
2023-02-16T16:41:57.371Z,12.30
2023-02-16T16:44:40.445Z,11.57
2023-02-16T16:47:37.669Z,11.90
2023-02-16T16:50:10.703Z,11.77
2023-02-16T16:52:49.655Z,13.83
2023-02-16T16:55:19.766Z,12.77
2023-02-16T16:57:49.290Z,12.67
2023-02-16T17:00:19.807Z,11.80
2023-02-16T17:02:47.088Z,13.00
2023-02-16T17:05:14.223Z,14.37
2023-02-16T17:07:41.252Z,13.83
2023-02-16T17:10:09.085Z,12.87
2023-02-16T17:12:36.240Z,13.57
2023-02-16T17:15:04.587Z,14.50
2023-02-16T17:17:32.176Z,14.07
2023-02-16T17:19:59.113Z,13.27
2023-02-16T17:22:26.080Z,13.57
2023-02-16T17:24:53.201Z,13.83
2023-02-16T17:27:20.135Z,13.37
2023-02-16T17:29:47.200Z,13.83
2023-02-16T17:32:14.313Z,14.17
2023-02-16T17:34:41.367Z,13.57
2023-02-16T17:37:10.109Z,12.17
2023-02-16T17:39:37.053Z,12.13
2023-02-16T17:42:04.270Z,11.87
2023-02-16T17:44:31.226Z,12.17
2023-02-16T17:46:58.283Z,11.80
2023-02-16T17:49:25.685Z,12.73
2023-02-16T17:51:53.594Z,12.90
2023-02-16T17:54:20.740Z,13.43
2023-02-16T17:56:47.779Z,12.53
2023-02-16T17:59:15.510Z,12.40
2023-02-16T18:01:44.375Z,12.73
2023-02-16T18:04:11.610Z,11.57
2023-02-16T18:06:38.677Z,12.50
2023-02-16T18:09:05.871Z,12.27
2023-02-16T18:11:32.817Z,12.03
2023-02-16T18:13:59.761Z,11.67
2023-02-16T18:16:28.215Z,11.33
2023-02-16T18:18:57.294Z,10.83
2023-02-16T18:21:24.575Z,11.03
2023-02-16T18:23:51.545Z,10.13
2023-02-16T18:26:18.671Z,10.83
2023-02-16T18:28:45.732Z,10.80
2023-02-16T18:31:14.597Z,10.73
2023-02-16T18:33:41.885Z,13.17
2023-02-16T18:36:09.776Z,10.37
2023-02-16T18:38:37.171Z,10.67
2023-02-16T18:41:04.752Z,10.37
2023-02-16T18:43:31.696Z,10.90
2023-02-16T18:45:58.715Z,11.03
2023-02-16T18:48:25.763Z,10.57
2023-02-16T18:50:52.827Z,10.57
2023-02-16T18:53:19.780Z,10.17
2023-02-16T18:55:46.844Z,9.90
2023-02-16T18:58:14.980Z,10.00
2023-02-16T19:00:42.147Z,9.87
2023-02-16T19:03:10.385Z,9.33
2023-02-16T19:05:37.536Z,9.13
2023-02-16T19:08:05.603Z,8.83
2023-02-16T19:10:33.589Z,8.33
2023-02-16T19:13:02.130Z,8.07
2023-02-16T19:15:29.297Z,7.83
2023-02-16T19:17:56.319Z,7.30
2023-02-16T19:20:23.407Z,7.17
2023-02-16T19:22:50.683Z,6.93
2023-02-16T19:25:18.186Z,7.03
2023-02-16T19:27:45.222Z,6.80
2023-02-16T19:30:12.734Z,7.00
2023-02-16T19:32:41.241Z,7.00
2023-02-16T19:35:12.175Z,8.37
2023-02-16T19:37:39.560Z,7.20
2023-02-16T19:40:10.126Z,7.33
2023-02-16T19:42:38.587Z,7.17
2023-02-16T19:45:06.342Z,7.07
2023-02-16T19:47:33.763Z,7.63
2023-02-16T19:50:00.708Z,7.10
2023-02-16T19:52:27.824Z,7.20
2023-02-16T19:54:54.895Z,6.93
2023-02-16T19:57:21.862Z,7.33
2023-02-16T19:59:48.852Z,7.03
2023-02-16T20:02:16.009Z,7.83
2023-02-16T20:04:44.610Z,7.53
2023-02-16T20:07:11.581Z,7.60
2023-02-16T20:09:38.892Z,7.77
2023-02-16T20:12:07.058Z,7.37
2023-02-16T20:14:34.103Z,8.23
2023-02-16T20:17:01.194Z,8.47
2023-02-16T20:19:28.211Z,8.73
2023-02-16T20:21:55.297Z,9.00
2023-02-16T20:24:22.323Z,9.03
2023-02-16T20:26:51.333Z,9.00
2023-02-16T20:29:18.380Z,8.97
2023-02-16T20:32:05.955Z,10.07
2023-02-16T20:34:33.595Z,10.03
2023-02-16T20:37:00.718Z,10.40
2023-02-16T20:39:28.007Z,10.40
2023-02-16T20:41:55.113Z,11.13
2023-02-16T20:44:22.655Z,11.40
2023-02-16T20:46:51.175Z,10.97
2023-02-16T20:49:19.023Z,11.67
2023-02-16T20:51:45.976Z,11.50
2023-02-16T20:54:13.573Z,11.97
2023-02-16T20:56:41.012Z,11.90
2023-02-16T20:59:08.506Z,11.30
2023-02-16T21:01:41.012Z,10.77
2023-02-16T21:04:09.586Z,10.97
2023-02-16T21:06:37.540Z,11.37
2023-02-16T21:09:06.703Z,11.50
2023-02-16T21:11:34.459Z,9.50
2023-02-16T21:14:02.502Z,9.77
2023-02-16T21:16:30.401Z,9.30
2023-02-16T21:18:57.710Z,10.63
2023-02-16T21:21:25.556Z,11.73
2023-02-16T21:23:54.646Z,10.13
2023-02-16T21:26:24.659Z,11.03
2023-02-16T21:28:52.898Z,11.13
2023-02-16T21:31:25.108Z,12.90
2023-02-16T21:33:53.604Z,11.23
2023-02-16T21:36:24.894Z,10.07
2023-02-16T21:38:52.447Z,11.10
2023-02-16T21:41:26.198Z,9.20
2023-02-16T21:44:03.004Z,12.13
2023-02-16T21:46:39.831Z,9.57
2023-02-16T21:49:09.968Z,11.60
2023-02-16T21:51:38.744Z,9.53
2023-02-16T21:54:14.000Z,9.53
2023-02-16T21:56:50.138Z,8.47
2023-02-16T21:59:19.786Z,11.73
2023-02-16T22:01:53.462Z,9.03
2023-02-16T22:04:23.076Z,9.67
2023-02-16T22:06:51.224Z,8.27
2023-02-16T22:09:21.743Z,8.83
2023-02-16T22:11:49.395Z,8.70
2023-02-16T22:14:16.420Z,8.63
2023-02-16T22:16:46.378Z,9.23
2023-02-16T22:19:16.569Z,8.20
2023-02-16T22:21:45.552Z,10.07
2023-02-16T22:24:15.813Z,10.17
2023-02-16T22:26:43.828Z,7.80
2023-02-16T22:29:11.668Z,5.57
2023-02-16T22:31:39.503Z,3.70
2023-02-16T22:34:12.500Z,3.57
2023-02-16T22:36:40.261Z,3.43
2023-02-16T22:39:07.889Z,2.60
2023-02-16T22:41:35.799Z,2.87
2023-02-16T22:44:03.502Z,2.70
2023-02-16T22:46:30.976Z,3.07
2023-02-16T22:48:59.071Z,2.80
2023-02-16T22:51:30.276Z,2.80
2023-02-16T22:54:01.947Z,2.73
2023-02-16T22:56:31.023Z,2.73
2023-02-16T22:59:00.105Z,2.93
2023-02-16T23:01:29.341Z,2.87
2023-02-16T23:03:58.684Z,2.80
2023-02-16T23:06:35.289Z,2.70
2023-02-16T23:09:14.979Z,3.90
2023-02-16T23:11:42.427Z,3.50
2023-02-16T23:14:16.417Z,3.50
2023-02-16T23:16:46.460Z,3.37
2023-02-16T23:19:17.405Z,3.10
2023-02-16T23:21:44.837Z,3.40
2023-02-16T23:24:18.941Z,3.23
2023-02-16T23:26:46.125Z,2.87
2023-02-16T23:29:13.684Z,2.20
2023-02-16T23:31:43.559Z,2.33
2023-02-16T23:34:11.562Z,2.60
2023-02-16T23:36:39.794Z,2.50
2023-02-16T23:39:11.504Z,2.30
2023-02-16T23:41:39.610Z,2.33
2023-02-16T23:44:07.894Z,2.47
2023-02-16T23:46:35.366Z,2.33
2023-02-16T23:49:03.436Z,2.20
2023-02-16T23:51:30.693Z,2.77
2023-02-16T23:53:57.835Z,2.70
2023-02-16T23:56:27.539Z,2.60
2023-02-16T23:58:59.566Z,2.70
